createdAt,value
2019-05-26T00:00:42.526Z,8.80
2019-05-26T00:01:42.529Z,8.80
2019-05-26T00:02:42.497Z,9.20
2019-05-26T00:03:42.489Z,8.70
2019-05-26T00:04:42.473Z,8.80
2019-05-26T00:05:42.477Z,8.90
2019-05-26T00:06:42.480Z,8.80
2019-05-26T00:07:42.468Z,9.20
2019-05-26T00:08:42.441Z,9.20
2019-05-26T00:09:42.418Z,9.50
2019-05-26T00:10:42.428Z,8.90
2019-05-26T00:11:42.422Z,9.20
2019-05-26T00:12:42.397Z,9.40
2019-05-26T00:13:42.376Z,9.50
2019-05-26T00:14:42.363Z,9.30
2019-05-26T00:15:42.353Z,9.80
2019-05-26T00:16:42.370Z,9.90
2019-05-26T00:17:42.335Z,9.40
2019-05-26T00:18:42.339Z,10.10
2019-05-26T00:19:42.304Z,10.10
2019-05-26T00:20:42.301Z,10.00
2019-05-26T00:21:42.305Z,9.90
2019-05-26T00:22:42.273Z,10.30
2019-05-26T00:23:42.274Z,10.20
2019-05-26T00:24:42.265Z,9.90
2019-05-26T00:25:42.239Z,10.10
2019-05-26T00:26:42.258Z,10.30
2019-05-26T00:27:42.238Z,10.00
2019-05-26T00:28:42.221Z,10.50
2019-05-26T00:29:42.209Z,10.20
2019-05-26T00:30:42.197Z,10.00
2019-05-26T00:31:42.211Z,10.60
2019-05-26T00:32:42.173Z,9.90
2019-05-26T00:33:42.159Z,10.30
2019-05-26T00:34:42.146Z,10.40
2019-05-26T00:35:42.136Z,10.70
2019-05-26T00:36:42.159Z,10.20
2019-05-26T00:37:50.474Z,11.90
2019-05-26T00:38:42.124Z,13.10
2019-05-26T00:39:42.100Z,12.60
2019-05-26T00:40:42.087Z,12.70
2019-05-26T00:41:42.111Z,12.80
2019-05-26T00:42:42.098Z,13.00
2019-05-26T00:43:42.041Z,12.50
2019-05-26T00:44:42.043Z,12.80
2019-05-26T00:45:42.035Z,12.60
2019-05-26T00:46:42.024Z,13.20
2019-05-26T00:47:42.018Z,13.30
2019-05-26T00:48:41.988Z,13.30
2019-05-26T00:49:41.977Z,13.20
2019-05-26T00:50:41.965Z,12.80
2019-05-26T00:51:41.968Z,12.40
2019-05-26T00:52:41.971Z,12.50
2019-05-26T00:53:41.945Z,12.80
2019-05-26T00:54:41.937Z,12.50
2019-05-26T00:55:41.927Z,12.60
2019-05-26T00:56:41.919Z,12.50
2019-05-26T00:57:41.928Z,11.70
2019-05-26T00:58:41.879Z,12.60
2019-05-26T00:59:41.888Z,11.90
2019-05-26T01:00:41.878Z,12.80
2019-05-26T01:01:41.863Z,11.90
2019-05-26T01:03:51.058Z,12.40
2019-05-26T01:04:52.029Z,13.00
2019-05-26T01:05:52.018Z,13.90
2019-05-26T01:06:51.994Z,14.00
2019-05-26T01:08:05.206Z,13.30
2019-05-26T01:08:51.986Z,13.80
2019-05-26T01:09:51.976Z,13.40
2019-05-26T01:10:51.960Z,13.00
2019-05-26T01:11:51.954Z,13.30
2019-05-26T01:12:51.972Z,13.50
2019-05-26T01:13:51.932Z,13.60
2019-05-26T01:14:51.910Z,12.90
2019-05-26T01:15:51.906Z,12.40
2019-05-26T01:16:55.629Z,13.80
2019-05-26T01:17:51.899Z,13.40
2019-05-26T01:18:51.888Z,13.10
2019-05-26T01:19:51.865Z,13.30
2019-05-26T01:20:51.846Z,13.30
2019-05-26T01:21:51.837Z,13.80
2019-05-26T01:22:53.868Z,13.60
2019-05-26T01:23:51.811Z,13.20
2019-05-26T01:24:51.803Z,12.50
2019-05-26T01:25:51.794Z,13.60
2019-05-26T01:26:51.799Z,12.80
2019-05-26T01:27:51.800Z,12.50
2019-05-26T01:28:51.759Z,13.20
2019-05-26T01:29:51.764Z,13.70
2019-05-26T01:30:51.738Z,12.30
2019-05-26T01:31:51.726Z,13.20
2019-05-26T01:32:51.737Z,12.90
2019-05-26T01:33:51.725Z,12.90
2019-05-26T01:34:51.698Z,13.20
2019-05-26T01:35:51.692Z,13.60
2019-05-26T01:36:51.680Z,12.80
2019-05-26T01:37:51.689Z,13.60
2019-05-26T01:38:51.663Z,13.60
2019-05-26T01:39:51.647Z,14.40
2019-05-26T01:40:51.642Z,14.10
2019-05-26T01:41:51.643Z,13.80
2019-05-26T01:42:51.656Z,14.00
2019-05-26T01:43:51.600Z,14.50
2019-05-26T01:44:51.585Z,14.50
2019-05-26T01:45:51.584Z,14.80
2019-05-26T01:46:51.563Z,13.90
2019-05-26T01:47:51.572Z,15.20
2019-05-26T01:48:51.561Z,15.10
2019-05-26T01:49:51.539Z,15.50
2019-05-26T01:50:51.524Z,14.20
2019-05-26T01:51:51.515Z,14.40
2019-05-26T01:52:51.497Z,15.30
2019-05-26T01:53:51.510Z,14.70
2019-05-26T01:54:51.486Z,14.50
2019-05-26T01:55:51.472Z,15.10
2019-05-26T01:56:51.453Z,14.40
2019-05-26T01:57:51.448Z,14.90
2019-05-26T01:58:51.461Z,14.70
2019-05-26T01:59:51.421Z,15.30
2019-05-26T02:00:51.417Z,14.30
2019-05-26T02:01:51.403Z,14.20
2019-05-26T02:02:51.383Z,15.00
2019-05-26T02:03:51.404Z,14.00
2019-05-26T02:04:51.405Z,14.10
2019-05-26T02:05:52.295Z,15.00
2019-05-26T02:06:51.364Z,15.30
2019-05-26T02:07:51.334Z,14.40
2019-05-26T02:08:51.351Z,14.80
2019-05-26T02:09:51.311Z,15.60
2019-05-26T02:10:51.301Z,15.00
2019-05-26T02:11:51.306Z,15.30
2019-05-26T02:12:51.286Z,15.30
2019-05-26T02:13:51.294Z,14.90
2019-05-26T02:14:51.289Z,15.10
2019-05-26T02:15:51.254Z,15.20
2019-05-26T02:16:51.247Z,15.00
2019-05-26T02:17:51.224Z,14.30
2019-05-26T02:18:51.306Z,14.50
2019-05-26T02:19:51.221Z,15.80
2019-05-26T02:20:51.201Z,15.40
2019-05-26T02:21:51.201Z,15.80
2019-05-26T02:22:51.181Z,15.90
2019-05-26T02:23:51.185Z,15.20
2019-05-26T02:24:51.159Z,15.30
2019-05-26T02:25:51.189Z,14.90
2019-05-26T02:26:51.352Z,15.10
2019-05-26T02:27:51.115Z,15.80
2019-05-26T02:28:51.122Z,16.20
2019-05-26T02:29:51.096Z,16.60
2019-05-26T02:30:51.091Z,17.00
2019-05-26T02:31:51.087Z,16.70
2019-05-26T02:32:51.072Z,15.80
2019-05-26T02:33:51.089Z,16.60
2019-05-26T02:34:51.039Z,15.70
2019-05-26T02:35:51.029Z,15.80
2019-05-26T02:36:51.027Z,15.80
2019-05-26T02:37:51.011Z,15.90
2019-05-26T02:39:02.051Z,16.80
2019-05-26T02:39:51.000Z,16.50
2019-05-26T02:40:50.997Z,15.70
2019-05-26T02:41:50.964Z,17.10
2019-05-26T02:42:50.954Z,16.30
2019-05-26T02:43:50.976Z,16.70
2019-05-26T02:44:50.941Z,16.90
2019-05-26T02:45:50.929Z,16.50
2019-05-26T02:46:50.917Z,16.80
2019-05-26T02:47:50.896Z,17.40
2019-05-26T02:48:50.911Z,16.20
2019-05-26T02:49:50.889Z,16.50
2019-05-26T02:50:50.870Z,17.20
2019-05-26T02:51:50.861Z,18.00
2019-05-26T02:52:50.846Z,15.90
2019-05-26T02:53:50.849Z,17.10
2019-05-26T02:54:50.831Z,18.10
2019-05-26T02:55:50.816Z,16.90
2019-05-26T02:56:50.799Z,17.10
2019-05-26T02:57:50.822Z,16.60
2019-05-26T02:58:50.797Z,17.50
2019-05-26T02:59:50.773Z,17.40
2019-05-26T03:00:50.765Z,17.60
2019-05-26T03:02:02.910Z,18.00
2019-05-26T03:02:50.750Z,17.20
2019-05-26T03:04:59.942Z,15.70
2019-05-26T03:06:00.906Z,17.80
2019-05-26T03:07:00.891Z,16.80
2019-05-26T03:08:00.876Z,18.00
2019-05-26T03:09:18.526Z,17.50
2019-05-26T03:10:00.875Z,18.60
2019-05-26T03:11:00.855Z,17.70
2019-05-26T03:12:00.836Z,17.20
2019-05-26T03:13:00.844Z,18.50
2019-05-26T03:14:00.833Z,18.20
2019-05-26T03:15:00.811Z,18.10
2019-05-26T03:16:00.819Z,17.30
2019-05-26T03:17:00.783Z,18.30
2019-05-26T03:18:00.777Z,17.20
2019-05-26T03:19:00.823Z,18.40
2019-05-26T03:20:00.758Z,17.30
2019-05-26T03:21:00.748Z,19.20
2019-05-26T03:22:00.735Z,17.60
2019-05-26T03:23:00.729Z,17.80
2019-05-26T03:24:00.719Z,17.80
2019-05-26T03:25:00.727Z,18.40
2019-05-26T03:26:00.686Z,17.00
2019-05-26T03:27:00.674Z,17.70
2019-05-26T03:28:00.669Z,17.10
2019-05-26T03:29:00.671Z,17.50
2019-05-26T03:30:01.190Z,17.30
2019-05-26T03:31:00.626Z,17.80
2019-05-26T03:32:00.644Z,17.80
2019-05-26T03:33:00.621Z,17.20
2019-05-26T03:34:00.606Z,16.90
2019-05-26T03:35:00.661Z,17.10
2019-05-26T03:36:00.583Z,17.20
2019-05-26T03:37:00.574Z,16.60
2019-05-26T03:38:00.551Z,18.10
2019-05-26T03:39:00.543Z,17.20
2019-05-26T03:40:00.554Z,17.00
2019-05-26T03:41:00.538Z,16.90
2019-05-26T03:42:00.517Z,17.20
2019-05-26T03:43:00.494Z,17.60
2019-05-26T03:44:00.504Z,17.40
2019-05-26T03:45:00.496Z,17.30
2019-05-26T03:46:00.462Z,16.70
2019-05-26T03:47:00.452Z,16.70
2019-05-26T03:48:00.446Z,16.90
2019-05-26T03:49:00.429Z,15.90
2019-05-26T03:50:00.442Z,16.30
2019-05-26T03:51:00.410Z,16.40
2019-05-26T03:52:00.405Z,16.70
2019-05-26T03:53:01.165Z,16.00
2019-05-26T03:54:00.398Z,15.90
2019-05-26T03:55:00.390Z,15.70
2019-05-26T03:56:00.363Z,15.90
2019-05-26T03:57:00.342Z,15.70
2019-05-26T03:58:00.403Z,15.70
2019-05-26T03:59:00.329Z,16.60
2019-05-26T04:00:00.342Z,16.20
2019-05-26T04:01:00.313Z,15.10
2019-05-26T04:02:00.302Z,15.70
2019-05-26T04:03:00.283Z,15.50
2019-05-26T04:04:00.277Z,15.50
2019-05-26T04:05:00.298Z,14.70
2019-05-26T04:06:00.264Z,14.70
2019-05-26T04:07:00.239Z,14.70
2019-05-26T04:08:04.541Z,15.30
2019-05-26T04:09:00.223Z,15.30
2019-05-26T04:10:05.440Z,14.30
2019-05-26T04:11:00.184Z,15.00
2019-05-26T04:12:00.199Z,15.30
2019-05-26T04:13:00.197Z,14.40
2019-05-26T04:14:00.166Z,14.10
2019-05-26T04:15:00.167Z,13.80
2019-05-26T04:16:00.137Z,13.40
2019-05-26T04:17:00.123Z,14.10
2019-05-26T04:18:00.143Z,14.30
2019-05-26T04:19:00.094Z,13.50
2019-05-26T04:20:00.119Z,13.60
2019-05-26T04:21:00.074Z,13.50
2019-05-26T04:22:00.089Z,13.30
2019-05-26T04:23:00.068Z,13.90
2019-05-26T04:24:00.051Z,13.60
2019-05-26T04:25:00.065Z,13.60
2019-05-26T04:26:00.019Z,13.70
2019-05-26T04:27:00.007Z,13.40
2019-05-26T04:28:00.004Z,13.60
2019-05-26T04:28:59.995Z,12.70
2019-05-26T04:29:59.998Z,12.90
2019-05-26T04:30:59.993Z,12.70
2019-05-26T04:32:02.109Z,12.50
2019-05-26T04:32:59.946Z,12.30
2019-05-26T04:33:59.937Z,12.10
2019-05-26T04:34:59.998Z,12.80
2019-05-26T04:35:59.939Z,12.30
2019-05-26T04:36:59.898Z,12.70
2019-05-26T04:37:59.897Z,12.60
2019-05-26T04:38:59.874Z,12.00
2019-05-26T04:40:28.628Z,9.40
2019-05-26T04:41:29.664Z,10.60
2019-05-26T04:42:29.576Z,12.30
2019-05-26T04:43:29.572Z,11.70
2019-05-26T04:44:29.565Z,11.80
2019-05-26T04:45:29.568Z,11.90
2019-05-26T04:46:29.530Z,11.30
2019-05-26T04:47:29.532Z,11.40
2019-05-26T04:48:29.520Z,11.20
2019-05-26T04:49:29.510Z,11.60
2019-05-26T04:50:29.501Z,10.70
2019-05-26T04:51:29.475Z,11.10
2019-05-26T04:52:29.476Z,11.50
2019-05-26T04:53:29.470Z,10.90
2019-05-26T04:54:29.450Z,11.30
2019-05-26T04:55:29.463Z,11.00
2019-05-26T04:56:29.437Z,11.00
2019-05-26T04:57:29.407Z,10.80
2019-05-26T04:58:29.403Z,10.70
2019-05-26T04:59:29.395Z,10.60
2019-05-26T05:00:29.409Z,11.10
2019-05-26T05:01:29.365Z,10.60
2019-05-26T05:02:29.359Z,10.30
2019-05-26T05:03:29.348Z,10.90
2019-05-26T05:04:29.337Z,10.70
2019-05-26T05:05:29.337Z,10.60
2019-05-26T05:06:29.343Z,10.10
2019-05-26T05:07:29.313Z,10.60
2019-05-26T05:08:29.295Z,11.30
2019-05-26T05:09:29.280Z,11.30
2019-05-26T05:10:41.754Z,11.00
2019-05-26T05:11:29.263Z,11.00
2019-05-26T05:12:29.250Z,10.90
2019-05-26T05:13:29.251Z,11.40
2019-05-26T05:14:29.235Z,10.50
2019-05-26T05:15:29.225Z,10.70
2019-05-26T05:16:29.217Z,11.20
2019-05-26T05:17:29.195Z,11.40
2019-05-26T05:18:29.186Z,11.80
2019-05-26T05:19:29.178Z,12.20
2019-05-26T05:20:29.177Z,11.70
2019-05-26T05:21:29.184Z,11.40
2019-05-26T05:22:29.146Z,11.90
2019-05-26T05:23:29.128Z,12.40
2019-05-26T05:24:29.112Z,12.10
2019-05-26T05:25:29.105Z,11.60
2019-05-26T05:26:29.127Z,12.00
2019-05-26T05:27:29.089Z,13.30
2019-05-26T05:28:29.068Z,12.80
2019-05-26T05:29:29.068Z,13.40
2019-05-26T05:30:29.053Z,12.80
2019-05-26T05:31:29.066Z,13.20
2019-05-26T05:32:32.720Z,13.30
2019-05-26T05:33:29.019Z,13.80
2019-05-26T05:34:29.012Z,14.10
2019-05-26T05:35:28.999Z,14.30
2019-05-26T05:36:29.012Z,13.30
2019-05-26T05:37:28.984Z,14.80
2019-05-26T05:38:28.971Z,14.80
2019-05-26T05:39:28.965Z,14.40
2019-05-26T05:40:28.955Z,14.80
2019-05-26T05:41:28.946Z,14.30
2019-05-26T05:42:28.927Z,14.50
2019-05-26T05:43:28.917Z,14.70
2019-05-26T05:44:28.924Z,14.40
2019-05-26T05:45:28.895Z,15.00
2019-05-26T05:46:28.917Z,15.80
2019-05-26T05:47:28.876Z,14.40
2019-05-26T05:48:28.863Z,14.20
2019-05-26T05:49:28.848Z,15.40
2019-05-26T05:50:28.839Z,15.20
2019-05-26T05:51:28.863Z,15.60
2019-05-26T05:52:28.815Z,15.20
2019-05-26T05:53:28.792Z,15.70
2019-05-26T05:54:28.799Z,15.60
2019-05-26T05:55:28.781Z,15.40
2019-05-26T05:56:28.905Z,16.20
2019-05-26T05:57:28.802Z,15.40
2019-05-26T05:58:28.744Z,14.70
2019-05-26T05:59:28.762Z,16.20
2019-05-26T06:00:28.729Z,14.70
2019-05-26T06:01:28.746Z,15.60
2019-05-26T06:02:28.715Z,16.00
2019-05-26T06:03:28.693Z,16.80
2019-05-26T06:04:28.675Z,16.70
2019-05-26T06:05:28.674Z,18.10
2019-05-26T06:06:28.674Z,17.90
2019-05-26T06:07:28.653Z,18.40
2019-05-26T06:08:28.639Z,19.50
2019-05-26T06:09:28.626Z,19.10
2019-05-26T06:10:28.615Z,19.90
2019-05-26T06:11:28.634Z,20.60
2019-05-26T06:12:28.620Z,19.90
2019-05-26T06:13:28.595Z,21.60
2019-05-26T06:14:28.579Z,21.00
2019-05-26T06:15:28.566Z,22.20
2019-05-26T06:16:28.565Z,22.30
2019-05-26T06:17:28.614Z,22.00
2019-05-26T06:18:28.534Z,22.70
2019-05-26T06:19:28.526Z,22.90
2019-05-26T06:20:28.522Z,24.20
2019-05-26T06:21:28.508Z,24.70
2019-05-26T06:22:28.519Z,23.90
2019-05-26T06:23:28.472Z,24.20
2019-05-26T06:24:28.475Z,24.00
2019-05-26T06:25:28.485Z,24.60
2019-05-26T06:26:28.454Z,24.90
2019-05-26T06:27:28.451Z,25.60
2019-05-26T06:28:28.427Z,25.80
2019-05-26T06:29:28.408Z,25.50
2019-05-26T06:30:28.393Z,26.00
2019-05-26T06:31:28.397Z,25.60
2019-05-26T06:32:28.388Z,24.60
2019-05-26T06:33:28.372Z,25.50
2019-05-26T06:34:28.361Z,24.80
2019-05-26T06:35:28.348Z,24.20
2019-05-26T06:36:28.332Z,24.30
2019-05-26T06:37:28.350Z,23.20
2019-05-26T06:38:28.317Z,22.30
2019-05-26T06:39:28.324Z,21.30
2019-05-26T06:41:37.489Z,19.00
2019-05-26T06:42:38.478Z,19.80
2019-05-26T06:43:38.457Z,20.40
2019-05-26T06:44:52.577Z,20.30
2019-05-26T06:45:38.429Z,19.60
2019-05-26T06:46:38.424Z,20.90
2019-05-26T06:47:38.457Z,20.00
2019-05-26T06:48:38.391Z,19.80
2019-05-26T06:49:38.378Z,20.10
2019-05-26T06:50:38.382Z,19.20
2019-05-26T06:51:38.395Z,18.40
2019-05-26T06:52:38.387Z,18.30
2019-05-26T06:53:38.351Z,18.50
2019-05-26T06:54:38.335Z,18.40
2019-05-26T06:55:38.330Z,18.60
2019-05-26T06:56:38.303Z,18.00
2019-05-26T06:57:38.323Z,17.70
2019-05-26T06:58:38.281Z,17.40
2019-05-26T06:59:38.271Z,17.30
2019-05-26T07:00:38.278Z,17.80
2019-05-26T07:01:38.259Z,17.90
2019-05-26T07:02:38.274Z,17.70
2019-05-26T07:03:38.227Z,17.00
2019-05-26T07:04:38.218Z,18.00
2019-05-26T07:05:38.221Z,17.90
2019-05-26T07:06:38.195Z,18.10
2019-05-26T07:07:38.203Z,17.80
2019-05-26T07:08:38.169Z,17.50
2019-05-26T07:09:38.153Z,17.60
2019-05-26T07:10:38.150Z,18.40
2019-05-26T07:11:52.065Z,18.60
2019-05-26T07:12:38.126Z,18.10
2019-05-26T07:13:38.113Z,17.70
2019-05-26T07:14:38.127Z,18.30
2019-05-26T07:15:38.099Z,17.90
2019-05-26T07:16:38.977Z,17.50
2019-05-26T07:17:38.095Z,18.00
2019-05-26T07:18:38.066Z,18.40
2019-05-26T07:19:38.045Z,18.50
2019-05-26T07:20:38.052Z,19.10
2019-05-26T07:21:38.089Z,18.50
2019-05-26T07:22:38.040Z,18.60
2019-05-26T07:23:38.026Z,19.20
2019-05-26T07:24:37.999Z,17.40
2019-05-26T07:25:37.989Z,18.90
2019-05-26T07:26:37.963Z,18.10
2019-05-26T07:27:37.974Z,18.80
2019-05-26T07:28:37.952Z,19.20
2019-05-26T07:29:37.931Z,18.40
2019-05-26T07:30:37.931Z,20.30
2019-05-26T07:31:37.924Z,18.80
2019-05-26T07:32:37.935Z,19.20
2019-05-26T07:33:37.887Z,18.10
2019-05-26T07:34:37.875Z,19.50
2019-05-26T07:35:37.886Z,19.70
2019-05-26T07:36:37.857Z,19.80
2019-05-26T07:37:37.862Z,18.40
2019-05-26T07:38:37.854Z,19.20
2019-05-26T07:39:37.834Z,18.30
2019-05-26T07:40:37.814Z,18.10
2019-05-26T07:41:37.838Z,18.50
2019-05-26T07:42:37.830Z,19.90
2019-05-26T07:43:37.830Z,18.90
2019-05-26T07:44:37.772Z,19.70
2019-05-26T07:45:37.760Z,19.20
2019-05-26T07:46:37.753Z,17.80
2019-05-26T07:47:37.764Z,18.20
2019-05-26T07:48:37.734Z,18.10
2019-05-26T07:49:37.724Z,17.90
2019-05-26T07:50:37.708Z,18.40
2019-05-26T07:51:37.707Z,18.80
2019-05-26T07:52:37.701Z,18.40
2019-05-26T07:53:37.676Z,18.30
2019-05-26T07:54:37.669Z,18.60
2019-05-26T07:55:37.645Z,18.40
2019-05-26T07:56:37.638Z,18.00
2019-05-26T07:57:37.653Z,18.40
2019-05-26T07:58:37.618Z,18.70
2019-05-26T07:59:37.607Z,18.30
2019-05-26T08:00:37.595Z,18.20
2019-05-26T08:01:37.590Z,18.40
2019-05-26T08:02:37.599Z,18.40
2019-05-26T08:03:37.571Z,17.70
2019-05-26T08:04:37.559Z,17.80
2019-05-26T08:05:37.570Z,17.20
2019-05-26T08:06:37.550Z,17.90
2019-05-26T08:07:37.553Z,16.90
2019-05-26T08:08:37.498Z,17.20
2019-05-26T08:09:37.514Z,18.20
2019-05-26T08:10:37.543Z,17.60
2019-05-26T08:11:37.478Z,18.30
2019-05-26T08:12:37.494Z,17.80
2019-05-26T08:13:37.456Z,16.70
2019-05-26T08:14:37.443Z,17.50
2019-05-26T08:15:37.434Z,16.10
2019-05-26T08:16:37.426Z,17.00
2019-05-26T08:17:37.422Z,16.40
2019-05-26T08:18:37.393Z,16.40
2019-05-26T08:19:37.390Z,17.10
2019-05-26T08:20:37.376Z,17.90
2019-05-26T08:21:37.365Z,18.00
2019-05-26T08:22:37.385Z,18.10
2019-05-26T08:23:37.347Z,16.50
2019-05-26T08:24:37.339Z,16.30
2019-05-26T08:25:37.321Z,17.40
2019-05-26T08:26:37.309Z,16.50
2019-05-26T08:27:37.319Z,18.00
2019-05-26T08:28:37.289Z,16.50
2019-05-26T08:29:37.267Z,17.80
2019-05-26T08:30:37.261Z,17.20
2019-05-26T08:31:37.257Z,17.10
2019-05-26T08:32:37.258Z,17.10
2019-05-26T08:33:37.241Z,16.60
2019-05-26T08:34:37.228Z,15.20
2019-05-26T08:35:37.215Z,15.70
2019-05-26T08:36:37.210Z,15.40
2019-05-26T08:37:37.200Z,15.20
2019-05-26T08:38:37.195Z,15.20
2019-05-26T08:39:37.160Z,15.80
2019-05-26T08:40:37.156Z,15.10
2019-05-26T08:42:46.365Z,13.80
2019-05-26T08:43:47.331Z,14.90
2019-05-26T08:44:47.321Z,14.90
2019-05-26T08:45:47.310Z,16.20
2019-05-26T08:46:47.294Z,15.40
2019-05-26T08:47:47.305Z,14.70
2019-05-26T08:48:47.268Z,14.50
2019-05-26T08:49:47.271Z,13.80
2019-05-26T08:50:47.242Z,13.90
2019-05-26T08:51:47.240Z,14.40
2019-05-26T08:52:47.248Z,13.90
2019-05-26T08:53:47.272Z,16.00
2019-05-26T08:54:47.232Z,14.60
2019-05-26T08:55:47.213Z,15.10
2019-05-26T08:56:47.206Z,15.10
2019-05-26T08:57:47.180Z,15.30
2019-05-26T08:58:47.180Z,14.90
2019-05-26T08:59:47.147Z,15.00
2019-05-26T09:00:47.144Z,16.30
2019-05-26T09:01:47.134Z,14.70
2019-05-26T09:02:47.112Z,14.90
2019-05-26T09:03:47.153Z,14.10
2019-05-26T09:04:47.096Z,15.20
2019-05-26T09:05:47.078Z,14.60
2019-05-26T09:06:47.084Z,15.10
2019-05-26T09:07:47.596Z,13.40
2019-05-26T09:08:47.081Z,13.30
2019-05-26T09:09:47.036Z,13.30
2019-05-26T09:10:47.047Z,13.30
2019-05-26T09:11:47.016Z,13.50
2019-05-26T09:12:59.777Z,12.40
2019-05-26T09:13:47.019Z,12.80
2019-05-26T09:14:47.011Z,13.10
2019-05-26T09:15:47.012Z,12.90
2019-05-26T09:16:46.959Z,12.40
2019-05-26T09:17:46.967Z,12.20
2019-05-26T09:18:46.964Z,12.10
2019-05-26T09:19:46.937Z,11.80
2019-05-26T09:20:46.923Z,12.00
2019-05-26T09:21:46.913Z,10.90
2019-05-26T09:22:46.902Z,12.00
2019-05-26T09:23:46.929Z,12.60
2019-05-26T09:24:46.892Z,12.10
2019-05-26T09:25:46.882Z,11.80
2019-05-26T09:26:46.868Z,11.70
2019-05-26T09:27:46.834Z,12.90
2019-05-26T09:28:46.871Z,12.90
2019-05-26T09:29:46.821Z,11.90
2019-05-26T09:30:46.807Z,12.30
2019-05-26T09:31:46.805Z,12.60
2019-05-26T09:32:46.789Z,12.10
2019-05-26T09:33:46.811Z,11.60
2019-05-26T09:34:46.770Z,12.10
2019-05-26T09:35:46.761Z,11.40
2019-05-26T09:36:46.746Z,12.60
2019-05-26T09:37:46.736Z,12.40
2019-05-26T09:38:46.795Z,11.50
2019-05-26T09:39:46.742Z,11.90
2019-05-26T09:40:46.700Z,11.90
2019-05-26T09:41:46.679Z,11.70
2019-05-26T09:42:46.675Z,12.00
2019-05-26T09:43:46.656Z,11.70
2019-05-26T09:44:46.680Z,12.30
2019-05-26T09:45:46.642Z,11.90
2019-05-26T09:46:46.698Z,11.60
2019-05-26T09:47:46.644Z,11.60
2019-05-26T09:48:46.621Z,12.50
2019-05-26T09:49:46.632Z,11.90
2019-05-26T09:50:46.581Z,11.80
2019-05-26T09:51:46.590Z,11.80
2019-05-26T09:52:46.567Z,11.10
2019-05-26T09:53:59.079Z,10.70
2019-05-26T09:54:46.569Z,10.50
2019-05-26T09:55:46.538Z,9.80
2019-05-26T09:56:46.538Z,8.80
2019-05-26T09:57:46.525Z,9.10
2019-05-26T09:58:46.496Z,9.00
2019-05-26T09:59:46.513Z,8.70
2019-05-26T10:00:46.478Z,8.80
2019-05-26T10:01:46.471Z,8.40
2019-05-26T10:02:46.456Z,8.50
2019-05-26T10:03:46.443Z,9.10
2019-05-26T10:04:46.465Z,9.00
2019-05-26T10:05:46.426Z,8.80
2019-05-26T10:06:46.417Z,8.50
2019-05-26T10:07:46.393Z,9.30
2019-05-26T10:08:46.394Z,8.50
2019-05-26T10:09:46.404Z,8.10
2019-05-26T10:10:46.358Z,8.50
2019-05-26T10:11:46.404Z,8.10
2019-05-26T10:12:46.353Z,9.30
2019-05-26T10:13:46.329Z,8.00
2019-05-26T10:14:47.879Z,8.80
2019-05-26T10:15:46.313Z,7.90
2019-05-26T10:16:46.337Z,8.50
2019-05-26T10:17:46.295Z,9.20
2019-05-26T10:18:46.296Z,9.30
2019-05-26T10:19:46.295Z,9.10
2019-05-26T10:20:46.263Z,9.60
2019-05-26T10:21:46.254Z,9.40
2019-05-26T10:22:46.238Z,9.10
2019-05-26T10:23:46.219Z,9.40
2019-05-26T10:24:46.227Z,9.80
2019-05-26T10:25:46.226Z,9.60
2019-05-26T10:26:46.196Z,8.90
2019-05-26T10:27:46.185Z,9.30
2019-05-26T10:28:46.194Z,9.20
2019-05-26T10:29:46.161Z,9.70
2019-05-26T10:30:46.161Z,9.50
2019-05-26T10:31:46.131Z,10.40
2019-05-26T10:32:46.128Z,9.20
2019-05-26T10:33:46.113Z,9.20
2019-05-26T10:34:46.107Z,9.10
2019-05-26T10:35:46.109Z,9.30
2019-05-26T10:36:46.635Z,8.70
2019-05-26T10:37:46.062Z,9.30
2019-05-26T10:38:46.084Z,8.80
2019-05-26T10:39:46.048Z,8.90
2019-05-26T10:40:46.065Z,8.60
2019-05-26T10:41:46.026Z,8.60
2019-05-26T10:43:55.216Z,7.60
2019-05-26T10:44:56.195Z,8.50
2019-05-26T10:45:56.204Z,8.30
2019-05-26T10:46:56.180Z,7.80
2019-05-26T10:47:56.162Z,7.70
2019-05-26T10:48:56.157Z,7.60
2019-05-26T10:49:56.146Z,7.60
2019-05-26T10:50:56.148Z,7.40
2019-05-26T10:51:56.128Z,7.70
2019-05-26T10:52:56.137Z,7.40
2019-05-26T10:53:56.101Z,7.50
2019-05-26T10:54:56.984Z,7.00
2019-05-26T10:55:56.102Z,7.20
2019-05-26T10:56:56.072Z,6.60
2019-05-26T10:57:56.068Z,6.40
2019-05-26T10:58:56.048Z,6.90
2019-05-26T10:59:56.049Z,7.30
2019-05-26T11:00:56.045Z,6.70
2019-05-26T11:01:56.013Z,6.00
2019-05-26T11:02:56.003Z,6.70
2019-05-26T11:03:55.990Z,6.20
2019-05-26T11:04:56.016Z,6.70
2019-05-26T11:05:55.977Z,6.00
2019-05-26T11:06:55.977Z,6.10
2019-05-26T11:07:55.950Z,6.20
2019-05-26T11:08:55.935Z,5.70
2019-05-26T11:09:55.931Z,6.10
2019-05-26T11:10:55.917Z,5.60
2019-05-26T11:11:55.946Z,5.90
2019-05-26T11:12:55.897Z,5.80
2019-05-26T11:14:02.970Z,5.90
2019-05-26T11:14:55.871Z,5.80
2019-05-26T11:15:55.856Z,5.90
2019-05-26T11:16:55.875Z,5.60
2019-05-26T11:17:55.843Z,5.60
2019-05-26T11:18:55.827Z,5.50
2019-05-26T11:19:55.808Z,5.20
2019-05-26T11:20:55.805Z,4.90
2019-05-26T11:21:55.813Z,5.50
2019-05-26T11:22:55.780Z,5.30
2019-05-26T11:23:55.778Z,5.10
2019-05-26T11:24:55.755Z,5.10
2019-05-26T11:25:55.756Z,5.20
2019-05-26T11:27:07.356Z,5.10
2019-05-26T11:27:55.747Z,4.70
2019-05-26T11:28:55.726Z,5.40
2019-05-26T11:29:55.738Z,4.80
2019-05-26T11:30:55.698Z,4.50
2019-05-26T11:31:55.700Z,4.80
2019-05-26T11:32:58.818Z,4.40
2019-05-26T11:33:55.673Z,4.70
2019-05-26T11:35:55.643Z,4.20
2019-05-26T11:36:14.069Z,4.60
2019-05-26T11:36:55.647Z,4.40
2019-05-26T11:37:55.615Z,4.20
2019-05-26T11:38:55.623Z,4.10
2019-05-26T11:39:55.607Z,4.30
2019-05-26T11:40:55.619Z,4.20
2019-05-26T11:41:55.597Z,4.70
2019-05-26T11:42:55.587Z,4.10
2019-05-26T11:43:55.557Z,4.60
2019-05-26T11:44:55.555Z,4.50
2019-05-26T11:45:55.544Z,4.40
2019-05-26T11:46:55.547Z,4.70
2019-05-26T11:47:55.519Z,4.60
2019-05-26T11:48:55.531Z,4.30
2019-05-26T11:49:55.497Z,4.00
2019-05-26T11:50:55.491Z,4.10
2019-05-26T11:51:55.528Z,4.10
2019-05-26T11:52:55.466Z,4.30
2019-05-26T11:53:55.447Z,3.90
2019-05-26T11:54:55.454Z,4.20
2019-05-26T11:55:55.432Z,3.80
2019-05-26T11:56:55.443Z,3.40
2019-05-26T11:57:55.416Z,3.50
2019-05-26T11:58:55.406Z,3.60
2019-05-26T11:59:55.390Z,3.90
2019-05-26T12:00:55.381Z,3.50
2019-05-26T12:01:55.494Z,3.60
2019-05-26T12:02:55.349Z,3.20
2019-05-26T12:03:55.386Z,3.20
2019-05-26T12:04:55.338Z,3.60
2019-05-26T12:05:55.329Z,3.20
2019-05-26T12:06:55.322Z,3.30
2019-05-26T12:07:55.312Z,3.10
2019-05-26T12:08:55.282Z,3.00
2019-05-26T12:09:55.287Z,3.10
2019-05-26T12:10:58.263Z,3.40
2019-05-26T12:11:55.254Z,3.30
2019-05-26T12:12:55.253Z,3.20
2019-05-26T12:13:55.242Z,3.40
2019-05-26T12:14:55.218Z,3.00
2019-05-26T12:15:55.210Z,3.30
2019-05-26T12:16:55.197Z,3.20
2019-05-26T12:17:55.222Z,2.90
2019-05-26T12:18:55.182Z,2.70
2019-05-26T12:19:55.163Z,2.50
2019-05-26T12:20:55.158Z,2.80
2019-05-26T12:21:55.146Z,2.70
2019-05-26T12:22:55.162Z,2.50
2019-05-26T12:23:55.980Z,3.10
2019-05-26T12:24:55.115Z,2.70
2019-05-26T12:25:55.100Z,2.50
2019-05-26T12:26:55.094Z,2.40
2019-05-26T12:27:55.099Z,2.30
2019-05-26T12:28:55.094Z,2.70
2019-05-26T12:29:55.070Z,2.70
2019-05-26T12:30:55.058Z,2.80
2019-05-26T12:31:55.042Z,2.80
2019-05-26T12:32:55.052Z,2.90
2019-05-26T12:33:55.016Z,2.60
2019-05-26T12:34:55.016Z,2.70
2019-05-26T12:35:55.009Z,3.00
2019-05-26T12:36:55.009Z,3.00
2019-05-26T12:37:55.000Z,3.00
2019-05-26T12:38:54.960Z,2.60
2019-05-26T12:39:54.981Z,2.50
2019-05-26T12:40:54.949Z,2.80
2019-05-26T12:41:54.946Z,2.80
2019-05-26T12:42:54.930Z,2.70
2019-05-26T12:45:04.169Z,2.90
2019-05-26T12:46:05.096Z,2.80
2019-05-26T12:47:05.083Z,2.90
2019-05-26T12:48:05.091Z,2.70
2019-05-26T12:49:05.052Z,3.10
2019-05-26T12:50:05.056Z,3.00
2019-05-26T12:51:05.034Z,3.00
2019-05-26T12:52:05.030Z,3.10
2019-05-26T12:53:05.051Z,2.90
2019-05-26T12:54:05.003Z,2.70
2019-05-26T12:55:08.623Z,2.60
2019-05-26T12:56:04.997Z,2.80
2019-05-26T12:57:04.980Z,3.00
2019-05-26T12:58:04.981Z,2.80
2019-05-26T12:59:04.961Z,2.80
2019-05-26T13:00:04.955Z,2.80
2019-05-26T13:01:04.933Z,2.70
2019-05-26T13:02:04.919Z,3.00
2019-05-26T13:03:04.912Z,3.20
2019-05-26T13:04:04.923Z,3.20
2019-05-26T13:05:04.894Z,3.20
2019-05-26T13:06:04.882Z,3.20
2019-05-26T13:07:04.873Z,3.30